Time;durP1;ratioP1;P1;durP2;ratioP2;P2;SDS_P1;SDS_P2;PMS_P1;PMS_P2;Temp;Humidity;BMP_temperature;BMP_pressure;BME280_temperature;BME280_humidity;BME280_pressure;Samples;Min_cycle;Max_cycle;Signal;HPM_P1;HPM_P2
2021/11/10 00:00:14;;;;;;;53.30;34.00;;;;;;;5.67;72.09;101657.00;5010008;28;97460;-76
2021/11/10 00:02:40;;;;;;;49.70;34.90;;;;;;;5.53;72.54;101632.59;5006932;28;97284;-77
2021/11/10 00:05:07;;;;;;;46.70;34.10;;;;;;;5.67;71.98;101662.22;4985664;28;96819;-77
2021/11/10 00:07:32;;;;;;;49.87;34.30;;;;;;;5.65;72.56;101653.50;5008910;28;100786;-77
2021/11/10 00:09:58;;;;;;;53.77;37.13;;;;;;;5.74;72.31;101660.53;4985458;28;97881;-77
2021/11/10 00:12:24;;;;;;;45.93;33.50;;;;;;;5.54;72.30;101626.50;5009297;28;96751;-76
2021/11/10 00:14:50;;;;;;;54.87;36.73;;;;;;;5.75;73.08;101653.56;5011428;28;97183;-76
2021/11/10 00:17:16;;;;;;;52.17;35.97;;;;;;;5.74;72.12;101650.09;4991858;28;101512;-76
2021/11/10 00:19:42;;;;;;;53.03;37.20;;;;;;;5.78;72.21;101648.38;4992418;28;100143;-77
2021/11/10 00:22:07;;;;;;;54.07;37.17;;;;;;;5.72;72.68;101643.13;4976093;28;98031;-77
2021/11/10 00:24:34;;;;;;;59.23;38.53;;;;;;;5.65;72.60;101643.09;4993604;28;96989;-77
2021/11/10 00:26:59;;;;;;;58.90;39.53;;;;;;;5.65;72.72;101629.19;4992973;28;100790;-76
2021/11/10 00:29:25;;;;;;;54.47;36.97;;;;;;;5.62;73.26;101624.84;4993309;28;101695;-77
2021/11/10 00:31:51;;;;;;;60.60;40.10;;;;;;;5.65;72.91;101631.81;4994136;28;96753;-76
2021/11/10 00:34:16;;;;;;;66.50;42.47;;;;;;;5.66;72.76;101626.59;4979345;28;96831;-75
2021/11/10 00:36:46;;;;;;;56.93;39.83;;;;;;;5.53;73.56;101631.72;5014380;28;97927;-75
2021/11/10 00:39:12;;;;;;;71.00;42.60;;;;;;;5.57;73.81;101620.44;5012298;28;100868;-75
2021/11/10 00:41:38;;;;;;;60.90;38.70;;;;;;;5.59;74.00;101626.56;4979634;28;97468;-78
2021/11/10 00:44:04;;;;;;;65.80;40.27;;;;;;;5.44;74.06;101599.53;5012074;28;97124;-77
2021/11/10 00:46:30;;;;;;;58.40;40.57;;;;;;;5.52;73.51;101617.81;5009670;28;100187;-78
2021/11/10 00:48:55;;;;;;;72.33;44.13;;;;;;;5.56;74.13;101618.72;5012867;28;102585;-75
2021/11/10 00:51:21;;;;;;;66.03;41.80;;;;;;;5.58;73.81;101611.75;4995882;28;96702;-75
2021/11/10 00:53:47;;;;;;;72.50;45.33;;;;;;;5.65;74.02;101603.16;4995515;28;97148;-75
2021/11/10 00:56:12;;;;;;;63.47;42.53;;;;;;;5.59;74.11;101613.53;4992065;28;98133;-75
2021/11/10 00:58:38;;;;;;;71.33;44.47;;;;;;;5.65;73.96;101604.00;4999827;28;100061;-75
2021/11/10 01:01:04;;;;;;;78.53;44.63;;;;;;;5.36;73.87;101562.13;4996221;28;97116;-75
2021/11/10 01:03:31;;;;;;;68.37;41.67;;;;;;;5.36;74.76;101582.09;4995842;28;97038;-75
2021/11/10 01:05:58;;;;;;;68.80;42.77;;;;;;;5.49;74.26;101583.91;4998630;28;100467;-75
2021/11/10 01:08:24;;;;;;;70.13;42.63;;;;;;;5.40;74.19;101576.91;5004264;28;101477;-75
2021/11/10 01:10:50;;;;;;;65.83;41.53;;;;;;;5.36;74.23;101585.56;4996956;28;97129;-76
2021/11/10 01:13:16;;;;;;;63.83;40.87;;;;;;;5.35;73.92;101581.25;4969444;28;98026;-76
2021/11/10 01:15:42;;;;;;;70.27;43.53;;;;;;;5.33;73.66;101567.31;4994777;28;100948;-75
2021/11/10 01:18:09;;;;;;;70.77;42.83;;;;;;;5.47;73.56;101566.53;4997943;28;101173;-75
2021/11/10 01:20:34;;;;;;;76.83;48.13;;;;;;;5.47;73.45;101557.00;5003958;28;97406;-76
2021/11/10 01:23:00;;;;;;;63.77;40.37;;;;;;;5.37;74.11;101563.88;5008142;28;97137;-75
2021/11/10 01:25:27;;;;;;;65.57;43.27;;;;;;;5.28;73.67;101552.53;4990499;28;101174;-75
2021/11/10 01:27:53;;;;;;;65.13;41.67;;;;;;;5.35;74.25;101560.41;5008713;28;101411;-76
2021/11/10 01:30:20;;;;;;;75.90;42.70;;;;;;;5.34;73.85;101555.16;5005235;28;97400;-75
2021/11/10 01:32:47;;;;;;;65.70;41.27;;;;;;;5.36;73.82;101551.72;5004870;28;96903;-76
2021/11/10 01:35:13;;;;;;;70.93;45.37;;;;;;;5.33;73.69;101540.41;5002656;28;101983;-75
2021/11/10 01:37:38;;;;;;;68.70;42.80;;;;;;;5.26;73.76;101528.19;4983108;28;101562;-75
2021/11/10 01:40:06;;;;;;;69.50;43.37;;;;;;;5.16;74.04;101529.88;4990377;28;96779;-75
2021/11/10 01:42:33;;;;;;;72.37;44.70;;;;;;;5.15;73.82;101523.81;5004502;28;96827;-75
2021/11/10 01:44:59;;;;;;;72.50;44.17;;;;;;;5.25;73.68;101542.09;4994263;28;101128;-75
2021/11/10 01:47:27;;;;;;;72.60;45.53;;;;;;;5.33;73.45;101550.84;4985402;28;101261;-75
2021/11/10 01:49:59;;;;;;;70.43;44.72;;;;;;;5.29;73.76;101544.72;4987567;28;97157;-75
2021/11/10 01:52:25;;;;;;;76.87;47.17;;;;;;;5.28;73.21;101536.91;5008775;28;96956;-75
2021/11/10 01:54:52;;;;;;;75.03;47.70;;;;;;;5.36;73.50;101561.28;4993557;28;101277;-75
2021/11/10 01:57:22;;;;;;;65.87;44.03;;;;;;;5.05;73.76;101528.91;4979568;28;101873;-74
2021/11/10 02:00:04;;;;;;;72.57;44.33;;;;;;;5.22;73.69;101540.34;4995574;28;96815;-75
2021/11/10 02:02:34;;;;;;;74.83;47.13;;;;;;;5.20;73.55;101539.44;4986596;28;96734;-75
2021/11/10 02:05:06;;;;;;;74.60;45.30;;;;;;;5.09;73.91;101536.78;4978698;28;101571;-75
2021/11/10 02:07:34;;;;;;;71.00;43.93;;;;;;;5.11;74.24;101526.38;4975708;28;101325;-75
2021/11/10 02:10:00;;;;;;;67.50;43.77;;;;;;;5.10;73.41;101528.09;5006997;28;97129;-75
2021/11/10 02:12:26;;;;;;;73.67;43.83;;;;;;;5.08;73.55;101528.94;5004980;28;97487;-75
2021/11/10 02:14:54;;;;;;;67.47;41.80;;;;;;;5.13;73.24;101535.06;4995580;28;101996;-75
2021/11/10 02:17:23;;;;;;;73.60;42.40;;;;;;;5.13;72.65;101511.63;4979416;28;100808;-75
2021/11/10 02:19:53;;;;;;;66.83;40.70;;;;;;;5.06;72.87;101530.66;4992104;27;96943;-75
2021/11/10 02:22:24;;;;;;;65.13;43.67;;;;;;;5.14;72.41;101529.84;5018593;27;97960;-75
2021/11/10 02:24:50;;;;;;;66.10;42.37;;;;;;;5.15;72.85;101534.22;5018599;27;101449;-75
2021/11/10 02:27:27;;;;;;;66.73;43.53;;;;;;;4.99;72.61;101488.97;5000288;27;100768;-75
2021/11/10 02:29:52;;;;;;;71.00;43.00;;;;;;;5.01;72.42;101512.41;5002442;27;97081;-75
2021/11/10 02:32:18;;;;;;;62.53;41.10;;;;;;;5.04;72.42;101514.19;5018021;27;96878;-75
2021/11/10 02:34:45;;;;;;;70.03;42.60;;;;;;;5.07;72.37;101514.19;5014422;28;100897;-75
2021/11/10 02:37:13;;;;;;;67.20;42.80;;;;;;;4.93;72.33;101498.47;5013850;28;101422;-74
2021/11/10 02:39:38;;;;;;;65.93;41.30;;;;;;;4.93;72.72;101509.75;5017622;27;97282;-75
2021/11/10 02:42:05;;;;;;;60.43;39.87;;;;;;;4.91;72.64;101514.06;5019187;27;96964;-75
2021/11/10 02:44:31;;;;;;;55.17;37.03;;;;;;;4.91;72.52;101507.97;4996847;28;101611;-75
2021/11/10 02:46:57;;;;;;;66.97;40.20;;;;;;;4.95;71.83;101500.22;5017787;27;101358;-76
2021/11/10 02:49:23;;;;;;;60.67;38.80;;;;;;;4.97;71.76;101495.03;5017324;27;96699;-75
2021/11/10 02:52:02;;;;;;;59.60;36.57;;;;;;;4.86;72.24;101488.84;5050789;27;97932;-75
2021/11/10 02:54:30;;;;;;;56.80;36.83;;;;;;;4.72;72.14;101480.97;5007713;27;98147;-75
2021/11/10 02:56:57;;;;;;;60.53;37.57;;;;;;;4.61;72.51;101460.06;5034929;27;97386;-74
2021/11/10 02:59:23;;;;;;;49.50;34.87;;;;;;;4.63;72.58;101467.88;4993807;27;97501;-75
2021/11/10 03:01:50;;;;;;;51.47;35.50;;;;;;;4.59;72.74;101476.50;5001377;27;97214;-75
2021/11/10 03:04:23;;;;;;;49.57;35.57;;;;;;;4.68;72.46;101479.16;5000228;27;100844;-75
2021/11/10 03:06:51;;;;;;;53.43;35.33;;;;;;;4.72;72.10;101483.56;5018223;27;101259;-75
2021/11/10 03:09:18;;;;;;;54.27;34.53;;;;;;;4.70;72.42;101486.13;5026631;27;96910;-75
2021/11/10 03:11:45;;;;;;;55.10;35.93;;;;;;;4.67;72.18;101480.91;5001666;27;97438;-75
2021/11/10 03:14:12;;;;;;;53.00;34.27;;;;;;;4.61;72.46;101480.84;5016698;27;102015;-75
2021/11/10 03:16:37;;;;;;;61.67;36.03;;;;;;;4.54;72.37;101466.06;5017979;27;101481;-75
2021/11/10 03:19:03;;;;;;;53.67;34.37;;;;;;;4.45;72.02;101453.84;5027333;27;96798;-75
2021/11/10 03:21:30;;;;;;;45.57;33.17;;;;;;;4.63;71.85;101473.94;5017413;27;97928;-75
2021/11/10 03:23:55;;;;;;;56.23;33.30;;;;;;;4.50;72.29;101475.56;5016396;27;100837;-75
2021/11/10 03:26:22;;;;;;;53.50;34.13;;;;;;;4.50;72.23;101487.69;5016870;27;101235;-75
2021/11/10 03:28:49;;;;;;;44.57;32.10;;;;;;;4.62;72.17;101484.31;5017480;27;97290;-75
2021/11/10 03:31:15;;;;;;;43.17;30.33;;;;;;;4.59;72.06;101485.16;5016869;27;97556;-75
2021/11/10 03:33:42;;;;;;;46.53;30.90;;;;;;;4.52;71.84;101484.25;4997172;28;101190;-74
2021/11/10 03:36:08;;;;;;;46.10;30.07;;;;;;;4.54;72.07;101473.88;5000562;27;101326;-76
2021/11/10 03:38:36;;;;;;;46.80;30.67;;;;;;;4.56;71.98;101474.75;4996978;28;97198;-75
2021/11/10 03:41:02;;;;;;;52.47;31.07;;;;;;;4.54;71.79;101450.47;5011213;27;96842;-75
2021/11/10 03:43:33;;;;;;;45.40;31.53;;;;;;;4.60;71.71;101479.13;5032975;27;100627;-75
2021/11/10 03:46:02;;;;;;;42.27;30.00;;;;;;;4.49;71.61;101473.81;5014339;27;100946;-75
2021/11/10 03:48:30;;;;;;;43.93;29.13;;;;;;;4.58;72.07;101478.22;5011062;28;97307;-75
2021/11/10 03:50:56;;;;;;;48.23;32.57;;;;;;;4.45;72.02;101451.25;4997172;27;96908;-75
2021/11/10 03:53:22;;;;;;;48.67;31.37;;;;;;;4.58;71.66;101467.84;5033138;27;97936;-75
2021/11/10 03:55:48;;;;;;;45.20;30.70;;;;;;;4.46;71.60;101440.00;5016393;27;101204;-75
2021/11/10 03:58:14;;;;;;;41.67;29.37;;;;;;;4.57;71.90;101466.09;4999553;27;96741;-75
2021/11/10 04:00:46;;;;;;;42.73;30.23;;;;;;;4.57;72.14;101460.91;5014530;27;96732;-75
2021/11/10 04:03:12;;;;;;;43.07;30.07;;;;;;;4.56;72.15;101463.47;4996341;27;101887;-75
2021/11/10 04:05:42;;;;;;;45.57;30.90;;;;;;;4.54;71.71;101469.53;5021032;27;101361;-75
2021/11/10 04:08:09;;;;;;;44.40;29.83;;;;;;;4.54;71.92;101466.94;5036757;27;97222;-75
2021/11/10 04:10:37;;;;;;;46.63;32.00;;;;;;;4.62;71.94;101463.50;5019800;27;97189;-75
2021/11/10 04:13:06;;;;;;;47.97;31.97;;;;;;;4.52;72.22;101460.84;5010987;27;101578;-74
2021/11/10 04:15:37;;;;;;;44.97;33.07;;;;;;;4.60;71.68;101467.84;5000422;28;100925;-75
2021/11/10 04:18:03;;;;;;;47.30;30.43;;;;;;;4.45;71.51;101459.06;4999866;28;97046;-75
2021/11/10 04:20:30;;;;;;;45.93;30.87;;;;;;;4.39;72.08;101458.09;4990725;27;97087;-75
2021/11/10 04:22:57;;;;;;;46.57;31.00;;;;;;;4.31;72.09;101455.44;5003294;27;101740;-75
2021/11/10 04:25:23;;;;;;;50.43;32.13;;;;;;;4.37;71.84;101460.72;5036673;27;97849;-75
2021/11/10 04:27:50;;;;;;;49.77;33.87;;;;;;;4.42;71.76;101452.94;5004339;27;97199;-75
2021/11/10 04:30:17;;;;;;;47.30;31.60;;;;;;;4.38;71.79;101457.25;5019040;27;97109;-75
2021/11/10 04:32:43;;;;;;;47.00;32.73;;;;;;;4.27;71.91;101435.47;5021740;27;102429;-75
2021/11/10 04:35:10;;;;;;;47.63;31.53;;;;;;;4.33;71.88;101438.13;5020052;27;101346;-75
2021/11/10 04:37:37;;;;;;;52.83;34.17;;;;;;;4.26;71.74;101437.19;5018148;27;97172;-74
2021/11/10 04:40:06;;;;;;;49.27;32.33;;;;;;;4.37;71.74;101452.03;5020213;27;96837;-75
2021/11/10 04:42:32;;;;;;;49.77;32.27;;;;;;;4.37;71.95;101446.84;5002253;27;101511;-75
2021/11/10 04:45:04;;;;;;;50.27;33.83;;;;;;;4.52;71.75;101449.56;5003539;27;101443;-75
2021/11/10 04:47:30;;;;;;;48.15;33.95;;;;;;;4.44;71.76;101448.63;5011971;27;97139;-74
2021/11/10 04:49:56;;;;;;;50.80;33.20;;;;;;;4.31;71.69;101458.91;5019590;27;96981;-75
2021/11/10 04:52:22;;;;;;;47.57;32.63;;;;;;;4.34;71.68;101455.47;5035889;27;101275;-75
2021/11/10 04:54:50;;;;;;;48.93;34.33;;;;;;;4.28;71.94;101453.69;5037094;27;97326;-75
2021/11/10 04:57:16;;;;;;;52.47;35.70;;;;;;;4.26;72.10;101450.19;5021609;27;96843;-75
2021/11/10 04:59:42;;;;;;;46.80;31.83;;;;;;;4.07;72.09;101415.38;5019322;27;97015;-75
2021/11/10 05:04:40;;;;;;;48.03;32.20;;;;;;;4.12;72.18;101420.59;5015955;28;101789;-75
2021/11/10 05:07:07;;;;;;;54.60;31.93;;;;;;;4.22;71.61;101434.56;5001780;27;97124;-75
2021/11/10 05:09:32;;;;;;;53.90;33.70;;;;;;;4.20;71.59;101428.47;5035419;27;97172;-75
2021/11/10 05:12:00;;;;;;;53.70;32.70;;;;;;;4.01;71.89;101417.00;5028269;28;101731;-75
2021/11/10 05:14:26;;;;;;;50.53;33.00;;;;;;;4.09;71.78;101431.81;5013859;28;101910;-75
2021/11/10 05:16:55;;;;;;;49.80;30.40;;;;;;;4.12;71.66;101420.59;5016087;27;96777;-75
2021/11/10 05:19:21;;;;;;;53.90;30.87;;;;;;;4.10;71.74;101422.31;5019601;28;97064;-74
2021/11/10 05:21:46;;;;;;;49.90;30.60;;;;;;;4.06;71.58;101424.00;5018017;27;101705;-75
2021/11/10 05:24:12;;;;;;;46.73;30.40;;;;;;;4.16;71.73;101426.69;4999001;28;101464;-76
2021/11/10 05:26:39;;;;;;;48.67;31.03;;;;;;;4.01;72.07;101425.69;5007161;27;96739;-75
2021/11/10 05:29:05;;;;;;;48.73;31.00;;;;;;;4.02;71.90;101417.03;5035164;27;96859;-75
2021/11/10 05:31:31;;;;;;;46.20;30.40;;;;;;;3.95;71.87;101396.16;5018308;27;101291;-74
2021/11/10 05:33:57;;;;;;;43.57;29.40;;;;;;;4.06;71.94;101411.00;5018787;27;100779;-74
2021/11/10 05:36:22;;;;;;;44.67;30.33;;;;;;;4.05;71.65;101405.81;5001939;27;96826;-75
2021/11/10 05:38:48;;;;;;;50.97;29.90;;;;;;;3.91;71.51;101384.88;5035737;27;97025;-75
2021/11/10 05:41:13;;;;;;;49.40;32.30;;;;;;;4.09;71.85;101397.19;5018794;27;100956;-75
2021/11/10 05:43:39;;;;;;;47.70;29.57;;;;;;;4.03;71.76;101407.53;5018235;27;101088;-76
2021/11/10 05:46:05;;;;;;;49.20;31.33;;;;;;;4.03;71.44;101386.72;5013254;27;97225;-75
2021/11/10 05:48:31;;;;;;;52.43;29.20;;;;;;;4.07;71.47;101386.78;5034572;27;97228;-75
2021/11/10 05:50:57;;;;;;;50.40;30.77;;;;;;;4.01;71.77;101384.09;5016234;27;97928;-75
2021/11/10 05:53:22;;;;;;;45.13;29.77;;;;;;;3.98;71.92;101394.47;5017314;27;101158;-75
2021/11/10 05:55:52;;;;;;;50.03;31.20;;;;;;;4.00;72.05;101384.09;5018029;27;97372;-78
2021/11/10 05:58:18;;;;;;;53.10;31.53;;;;;;;4.09;71.39;101379.84;5015672;27;96816;-76
2021/11/10 06:00:45;;;;;;;50.40;31.63;;;;;;;4.00;71.66;101379.78;5030400;27;99397;-76
2021/11/10 06:03:10;;;;;;;46.57;30.03;;;;;;;4.03;71.84;101378.94;5015825;27;100967;-75
2021/11/10 06:05:36;;;;;;;47.20;30.53;;;;;;;3.98;71.73;101385.81;5014530;27;96873;-75
2021/11/10 06:08:02;;;;;;;51.60;30.67;;;;;;;4.00;71.66;101387.56;5007322;27;96922;-76
2021/11/10 06:10:28;;;;;;;43.27;28.83;;;;;;;4.03;71.83;101392.78;5010817;27;97913;-77
2021/11/10 06:12:53;;;;;;;52.27;31.50;;;;;;;3.98;72.28;101394.47;4999579;27;99514;-78
2021/11/10 06:15:19;;;;;;;49.40;30.67;;;;;;;4.05;71.47;101387.63;4998339;27;96749;-78
2021/11/10 06:17:45;;;;;;;56.13;31.83;;;;;;;4.01;71.88;101385.84;5014788;27;97322;-82
2021/11/10 06:20:11;;;;;;;50.43;30.47;;;;;;;4.01;71.97;101388.44;4997591;27;101940;-81
2021/11/10 06:22:37;;;;;;;50.77;31.60;;;;;;;3.84;71.99;101357.97;4996111;27;101054;-81
2021/11/10 06:25:04;;;;;;;47.70;29.80;;;;;;;3.90;71.94;101356.28;5014930;27;96907;-79
2021/11/10 06:27:30;;;;;;;51.03;29.50;;;;;;;3.90;72.26;101361.47;4995359;27;97861;-78
2021/11/10 06:29:56;;;;;;;46.97;29.97;;;;;;;4.08;71.83;101378.13;5014708;27;101350;-79
2021/11/10 06:32:21;;;;;;;51.00;29.43;;;;;;;4.01;72.31;101384.09;5014700;27;100827;-75
2021/11/10 06:34:47;;;;;;;45.60;28.23;;;;;;;4.08;71.93;101385.06;5013899;27;97303;-75
2021/11/10 06:37:13;;;;;;;46.77;28.43;;;;;;;4.21;71.67;101386.91;5012880;27;98472;-76
2021/11/10 06:39:38;;;;;;;47.23;30.17;;;;;;;4.25;71.89;101382.63;5011820;27;101195;-79
2021/11/10 06:42:04;;;;;;;47.23;29.70;;;;;;;4.29;71.57;101382.63;5031065;27;98055;-76
2021/11/10 06:44:30;;;;;;;42.97;27.87;;;;;;;4.20;71.55;101360.91;5014159;27;97517;-79
2021/11/10 06:46:59;;;;;;;52.30;29.97;;;;;;;4.31;71.73;101378.34;5009262;27;97622;-79
2021/11/10 06:49:28;;;;;;;47.57;30.30;;;;;;;4.35;71.42;101376.63;4998612;27;101377;-78
2021/11/10 06:51:55;;;;;;;47.33;28.83;;;;;;;4.44;71.42;101373.22;5013475;27;98451;-81
2021/11/10 06:54:21;;;;;;;44.97;28.50;;;;;;;4.82;70.12;101389.09;5032269;27;96884;-78
2021/11/10 06:56:48;;;;;;;50.07;29.23;;;;;;;5.06;69.87;101401.41;5014549;27;97143;-81
2021/11/10 06:59:13;;;;;;;47.93;29.90;;;;;;;5.47;68.63;101394.66;5014290;27;101407;-81
2021/11/10 07:01:39;;;;;;;45.77;29.33;;;;;;;5.71;68.67;101388.66;5049870;27;97867;-81
2021/11/10 07:04:04;;;;;;;49.87;29.10;;;;;;;6.03;67.12;101384.44;5013414;27;98189;-81
2021/11/10 07:06:30;;;;;;;47.07;28.03;;;;;;;6.34;66.70;101384.44;4999321;27;97399;-81
2021/11/10 07:09:14;;;;;;;47.47;28.43;;;;;;;6.75;65.23;101389.66;5016622;27;97552;-81
2021/11/10 07:11:40;;;;;;;47.80;29.20;;;;;;;6.84;65.14;101378.34;5006848;27;100140;-78
2021/11/10 07:14:07;;;;;;;50.22;30.90;;;;;;;7.11;63.95;101372.16;5034136;27;96837;-77
2021/11/10 07:16:33;;;;;;;48.45;30.02;;;;;;;7.40;63.08;101353.78;5006274;27;96890;-77
2021/11/10 07:18:59;;;;;;;50.08;31.55;;;;;;;7.77;62.20;101363.19;5013454;27;97545;-77
2021/11/10 07:21:25;;;;;;;46.08;28.77;;;;;;;7.91;61.55;101359.59;4997876;27;100721;-77
2021/11/10 07:23:52;;;;;;;46.63;30.05;;;;;;;8.43;60.39;101381.03;5000183;27;97332;-77
2021/11/10 07:26:17;;;;;;;45.67;29.90;;;;;;;8.72;59.89;101365.06;5007365;27;96765;-78
2021/11/10 07:28:43;;;;;;;52.15;29.85;;;;;;;8.83;59.05;101365.81;5004415;27;101240;-83
2021/11/10 07:31:08;;;;;;;45.70;30.13;;;;;;;9.22;57.75;101371.50;5041682;27;101059;-85
2021/11/10 07:33:34;;;;;;;44.42;29.17;;;;;;;9.13;57.97;101382.97;5016479;27;96773;-84
2021/11/10 07:36:00;;;;;;;45.40;28.10;;;;;;;9.27;57.66;101359.22;5035271;27;97221;-84
2021/11/10 07:38:25;;;;;;;40.45;28.30;;;;;;;9.41;57.03;101348.56;5032945;27;97412;-82
2021/11/10 07:40:53;;;;;;;48.17;29.88;;;;;;;9.86;56.56;101368.06;5034402;27;99303;-82
2021/11/10 07:43:19;;;;;;;44.47;27.75;;;;;;;10.17;55.57;101370.22;5017712;27;97138;-78
2021/11/10 07:45:50;;;;;;;50.88;27.83;;;;;;;10.22;55.22;101346.53;5017527;27;97484;-83
2021/11/10 07:48:18;;;;;;;45.08;27.98;;;;;;;10.73;54.34;101378.06;5011838;27;98122;-84
2021/11/10 07:50:44;;;;;;;38.08;26.77;;;;;;;10.85;54.37;101359.47;5016024;27;100192;-83
2021/11/10 07:53:10;;;;;;;36.20;25.63;;;;;;;11.50;52.73;101370.41;5033626;27;97150;-82
2021/11/10 07:55:36;;;;;;;38.55;25.77;;;;;;;11.41;53.11;101372.38;5034411;27;96762;-83
2021/11/10 07:58:02;;;;;;;39.17;25.70;;;;;;;11.70;52.84;101374.41;4999973;27;98339;-83
2021/11/10 08:00:28;;;;;;;38.95;25.02;;;;;;;11.98;51.63;101374.66;4999504;27;100929;-82
2021/11/10 08:02:54;;;;;;;38.25;25.77;;;;;;;12.03;51.46;101358.75;5016443;27;97278;-81
2021/11/10 08:05:19;;;;;;;37.83;26.52;;;;;;;12.47;51.35;101365.56;5052082;27;96739;-81
2021/11/10 08:07:45;;;;;;;35.42;24.33;;;;;;;12.53;50.86;101364.53;5032603;27;97472;-82
2021/11/10 08:10:12;;;;;;;39.88;25.60;;;;;;;12.67;50.33;101358.00;5032849;27;101136;-82
2021/11/10 08:12:38;;;;;;;34.78;22.85;;;;;;;12.63;50.13;101359.00;5014144;27;96985;-81
2021/11/10 08:15:08;;;;;;;33.45;22.17;;;;;;;12.87;49.31;101375.06;5017561;27;97180;-80
2021/11/10 08:17:37;;;;;;;32.25;23.48;;;;;;;13.12;49.84;101364.75;5031922;27;97780;-83
2021/11/10 08:20:11;;;;;;;34.28;22.35;;;;;;;12.86;49.99;101344.38;5016729;27;101096;-77
2021/11/10 08:22:37;;;;;;;33.28;23.80;;;;;;;13.12;49.65;101367.38;5016101;27;96821;-86
2021/11/10 08:25:04;;;;;;;33.45;24.23;;;;;;;13.64;48.84;101362.38;5050159;27;98553;-76
2021/11/10 08:27:30;;;;;;;32.58;23.42;;;;;;;13.56;48.08;101358.19;4998192;27;101522;-75
2021/11/10 08:29:56;;;;;;;32.47;22.05;;;;;;;13.73;48.63;101359.44;5029846;27;100350;-76
2021/11/10 08:32:21;;;;;;;31.27;23.95;;;;;;;14.09;47.40;101361.84;5015478;27;98059;-76
2021/11/10 08:34:48;;;;;;;31.00;23.00;;;;;;;13.86;47.77;101365.22;5016895;27;96888;-75
2021/11/10 08:37:13;;;;;;;30.90;22.23;;;;;;;13.68;47.51;101359.59;5011342;28;97543;-76
2021/11/10 08:39:39;;;;;;;30.45;21.30;;;;;;;12.99;49.18;101353.66;5011641;27;100705;-74
2021/11/10 08:42:08;;;;;;;29.38;22.30;;;;;;;13.03;48.47;101370.22;5051027;27;97257;-83
2021/11/10 08:44:36;;;;;;;32.00;23.35;;;;;;;13.03;48.88;101346.50;5016513;27;97957;-81
2021/11/10 08:47:04;;;;;;;28.17;20.55;;;;;;;13.58;47.82;101356.38;4983915;27;101056;-80
2021/11/10 08:49:31;;;;;;;29.58;20.77;;;;;;;14.03;46.83;101365.56;4998968;27;99970;-75
2021/11/10 08:51:57;;;;;;;30.08;20.85;;;;;;;14.52;45.86;101366.63;5030693;27;96968;-76
2021/11/10 08:54:25;;;;;;;25.48;19.75;;;;;;;14.97;45.76;101351.84;5015195;27;97287;-75
2021/11/10 08:56:53;;;;;;;25.08;19.40;;;;;;;14.73;45.22;101353.59;5017770;27;98224;-77
2021/11/10 08:59:20;;;;;;;28.95;19.98;;;;;;;14.74;45.71;101355.31;4997190;27;100678;-74
2021/11/10 09:01:50;;;;;;;29.13;19.27;;;;;;;14.90;45.07;101315.06;5031634;27;97456;-74
2021/11/10 09:04:17;;;;;;;23.30;18.33;;;;;;;14.91;45.11;101350.28;5016958;27;97152;-74
2021/11/10 09:06:44;;;;;;;25.23;18.33;;;;;;;15.17;44.62;101339.63;5033816;27;97370;-74
2021/11/10 09:09:10;;;;;;;24.38;19.13;;;;;;;15.40;44.34;101332.63;5028463;27;97979;-74
2021/11/10 09:11:36;;;;;;;25.38;18.75;;;;;;;15.72;43.99;101333.19;5045373;27;97081;-74
2021/11/10 09:14:02;;;;;;;27.70;20.80;;;;;;;15.92;43.77;101316.50;5014708;27;98033;-74
2021/11/10 09:16:27;;;;;;;27.00;21.13;;;;;;;16.00;44.13;101331.16;5033217;27;101510;-74
2021/11/10 09:18:53;;;;;;;27.25;19.27;;;;;;;16.18;43.71;101316.28;5005608;28;101779;-75
2021/11/10 09:21:18;;;;;;;30.50;18.70;;;;;;;16.58;42.51;101319.03;5017672;28;96747;-76
2021/11/10 09:23:45;;;;;;;27.27;18.85;;;;;;;17.01;41.60;101290.66;5006073;28;97776;-77
2021/11/10 09:26:11;;;;;;;25.38;18.50;;;;;;;17.15;41.84;101315.63;4993663;28;101471;-80
2021/11/10 09:28:37;;;;;;;24.02;16.60;;;;;;;17.12;41.04;101305.16;4976767;28;101645;-78
2021/11/10 09:31:03;;;;;;;21.25;15.98;;;;;;;17.14;41.06;101316.56;5011130;28;97164;-78
2021/11/10 09:33:32;;;;;;;23.95;17.98;;;;;;;17.00;41.11;101304.84;5010845;28;97044;-78
2021/11/10 09:35:57;;;;;;;27.42;20.80;;;;;;;17.39;39.82;101318.94;5012163;28;98297;-79
2021/11/10 09:38:24;;;;;;;17.10;15.20;;;;;;;17.11;39.73;101316.69;5005842;28;101268;-79
2021/11/10 09:40:53;;;;;;;17.17;14.57;;;;;;;17.33;39.60;101316.56;5009228;28;97195;-78
2021/11/10 09:43:19;;;;;;;19.75;15.50;;;;;;;17.03;40.40;101316.19;5003811;28;96854;-80
2021/11/10 09:45:47;;;;;;;19.27;13.63;;;;;;;17.32;39.21;101298.91;4996390;28;97695;-78
2021/11/10 09:48:14;;;;;;;17.40;14.50;;;;;;;17.42;39.23;101321.47;5016404;28;97380;-76
2021/11/10 09:50:43;;;;;;;18.92;12.32;;;;;;;17.12;40.57;101321.06;5022192;28;96863;-77
2021/11/10 09:53:09;;;;;;;21.30;12.93;;;;;;;17.64;39.77;101315.97;5000116;28;98448;-76
2021/11/10 09:55:34;;;;;;;14.55;13.00;;;;;;;17.19;39.36;101290.69;4986554;28;100979;-77
2021/11/10 09:58:00;;;;;;;16.08;11.32;;;;;;;17.10;39.38;101298.19;5001733;28;97856;-76
2021/11/10 10:00:49;;;;;;;14.35;11.45;;;;;;;17.23;39.81;101290.53;5010705;28;98145;-75
2021/11/10 10:03:15;;;;;;;18.80;12.30;;;;;;;17.30;39.78;101291.97;5020296;28;98887;-79
2021/11/10 10:05:42;;;;;;;12.77;10.38;;;;;;;17.01;39.63;101295.97;5001243;28;101010;-75
2021/11/10 10:08:08;;;;;;;12.75;11.45;;;;;;;16.78;40.33;101289.03;4991348;28;101360;-75
2021/11/10 10:10:34;;;;;;;19.13;12.50;;;;;;;16.61;40.55;101273.84;4986970;28;98063;-76
2021/11/10 10:13:01;;;;;;;17.73;11.25;;;;;;;16.32;40.48;101272.44;5002955;28;97161;-78
2021/11/10 10:15:30;;;;;;;15.65;11.60;;;;;;;15.75;41.16;101288.06;5022567;28;97960;-75
2021/11/10 10:17:59;;;;;;;15.15;11.32;;;;;;;15.89;41.84;101284.88;5005154;27;101050;-74
2021/11/10 10:20:24;;;;;;;13.45;11.18;;;;;;;15.80;41.81;101296.69;5016893;27;96868;-75
2021/11/10 10:22:50;;;;;;;12.07;10.63;;;;;;;15.83;41.62;101275.38;5031084;27;97217;-76
2021/11/10 10:25:16;;;;;;;10.88;9.77;;;;;;;15.62;42.00;101293.81;5017427;27;101737;-76
2021/11/10 10:27:57;;;;;;;13.75;9.60;;;;;;;15.38;42.59;101281.53;5017865;27;97970;-76
2021/11/10 10:30:38;;;;;;;13.00;10.82;;;;;;;15.05;42.92;101283.69;5033972;27;96827;-75
2021/11/10 10:33:13;;;;;;;11.30;9.88;;;;;;;15.15;43.43;101279.78;5029838;27;96996;-75
2021/11/10 10:35:45;;;;;;;15.60;11.00;;;;;;;14.99;43.42;101247.78;5024116;27;97971;-75
2021/11/10 10:38:16;;;;;;;10.48;8.65;;;;;;;14.86;43.61;101268.50;5031390;27;101270;-77
2021/11/10 10:40:44;;;;;;;14.43;9.07;;;;;;;14.81;42.79;101272.25;5026019;27;97528;-76
2021/11/10 10:43:11;;;;;;;17.25;7.00;;;;;;;14.54;42.47;101267.00;5001447;27;97530;-75
2021/11/10 10:45:44;;;;;;;10.00;8.20;;;;;;;14.56;43.18;101272.25;5028897;27;97536;-75
2021/11/10 10:48:12;;;;;;;8.18;6.88;;;;;;;14.39;42.51;101270.19;5013194;27;97876;-76
2021/11/10 10:50:48;;;;;;;9.73;7.10;;;;;;;14.19;42.65;101278.78;5034364;27;96991;-75
2021/11/10 10:53:17;;;;;;;7.65;6.95;;;;;;;13.88;43.41;101248.13;5018838;27;96912;-82
2021/11/10 10:55:46;;;;;;;11.65;7.15;;;;;;;13.93;43.04;101240.06;5034676;27;98302;-83
2021/11/10 10:58:30;;;;;;;8.15;6.97;;;;;;;13.87;43.15;101259.59;5017646;27;101732;-77
2021/11/10 11:00:57;;;;;;;9.98;7.07;;;;;;;13.61;43.84;101234.03;5031503;27;98330;-75
2021/11/10 11:03:25;;;;;;;7.40;6.50;;;;;;;13.68;43.57;101235.59;5035857;27;97711;-77
2021/11/10 11:05:51;;;;;;;7.68;6.85;;;;;;;13.64;44.04;101246.28;5015625;27;97609;-77
2021/11/10 11:08:33;;;;;;;14.20;7.10;;;;;;;13.75;45.61;101252.94;5033954;27;98139;-77
2021/11/10 11:11:41;;;;;;;9.45;6.80;;;;;;;13.46;43.83;101222.22;5017392;27;97136;-77
2021/11/10 11:14:16;;;;;;;9.07;7.20;;;;;;;13.37;44.71;101243.59;5036870;27;96723;-77